Time;durP1;ratioP1;P1;durP2;ratioP2;P2;SDS_P1;SDS_P2;PMS_P1;PMS_P2;Temp;Humidity;BMP_temperature;BMP_pressure;BME280_temperature;BME280_humidity;BME280_pressure;Samples;Min_cycle;Max_cycle;Signal;HPM_P1;HPM_P2
2023/09/14 00:00:56;;;;;;;0.50;0.50;;;;;;;;;;5071759;28;20230;-82
2023/09/14 00:03:25;;;;;;;0.40;0.40;;;;;;;;;;5055321;28;20280;-82
2023/09/14 00:05:53;;;;;;;0.50;0.50;;;;;;;;;;5052317;28;20203;-82
2023/09/14 00:08:23;;;;;;;1.67;0.97;;;;;;;;;;5052044;28;20218;-82
2023/09/14 00:10:56;;;;;;;0.90;0.90;;;;;;;;;;5051471;28;20200;-82
2023/09/14 00:13:24;;;;;;;1.80;0.97;;;;;;;;;;5052754;28;20203;-82
2023/09/14 00:15:53;;;;;;;0.50;0.50;;;;;;;;;;5052067;28;20197;-82
2023/09/14 00:18:21;;;;;;;0.50;0.50;;;;;;;;;;5052131;28;20275;-82
2023/09/14 00:20:52;;;;;;;0.77;0.77;;;;;;;;;;5051888;28;20216;-82
2023/09/14 00:23:21;;;;;;;0.50;0.50;;;;;;;;;;5052017;28;20212;-82
2023/09/14 00:25:51;;;;;;;0.77;0.77;;;;;;;;;;5051994;28;20210;-82
2023/09/14 00:28:20;;;;;;;0.50;0.50;;;;;;;;;;5051584;28;20235;-82
2023/09/14 00:30:51;;;;;;;0.50;0.50;;;;;;;;;;5051647;28;20191;-83
2023/09/14 00:33:23;;;;;;;0.40;0.40;;;;;;;;;;5052077;28;20203;-82
2023/09/14 00:35:51;;;;;;;0.50;0.50;;;;;;;;;;5051828;28;20251;-82
2023/09/14 00:38:19;;;;;;;0.40;0.40;;;;;;;;;;5051296;28;20199;-82
2023/09/14 00:40:48;;;;;;;1.00;1.00;;;;;;;;;;5051741;28;20222;-82
2023/09/14 00:43:19;;;;;;;0.50;0.50;;;;;;;;;;5065342;28;20279;-81
2023/09/14 00:45:48;;;;;;;0.50;0.50;;;;;;;;;;5072637;28;20200;-81
2023/09/14 00:48:17;;;;;;;0.50;0.50;;;;;;;;;;5072036;28;20292;-81
2023/09/14 00:50:47;;;;;;;0.50;0.50;;;;;;;;;;5072345;28;20204;-81
2023/09/14 00:53:16;;;;;;;0.50;0.50;;;;;;;;;;5072455;28;20230;-81
2023/09/14 00:55:45;;;;;;;0.50;0.50;;;;;;;;;;5071993;28;20279;-81
2023/09/14 00:58:16;;;;;;;0.50;0.50;;;;;;;;;;5060548;28;20216;-81
2023/09/14 01:00:47;;;;;;;1.80;1.70;;;;;;;;;;5052405;28;20226;-81
2023/09/14 01:03:15;;;;;;;0.50;0.50;;;;;;;;;;5052049;28;20193;-81
2023/09/14 01:05:45;;;;;;;0.50;0.50;;;;;;;;;;5052253;28;20208;-81
2023/09/14 01:08:13;;;;;;;0.50;0.50;;;;;;;;;;5052263;28;20213;-81
2023/09/14 01:10:42;;;;;;;0.50;0.50;;;;;;;;;;5052143;28;20197;-82
2023/09/14 01:13:13;;;;;;;0.50;0.50;;;;;;;;;;5051408;28;20208;-82
2023/09/14 01:15:46;;;;;;;0.70;0.70;;;;;;;;;;5051114;28;20205;-82
2023/09/14 01:18:21;;;;;;;0.50;0.50;;;;;;;;;;5051256;28;20207;-82
2023/09/14 01:21:05;;;;;;;0.50;0.50;;;;;;;;;;5051275;28;20212;-82
2023/09/14 01:23:38;;;;;;;0.87;0.87;;;;;;;;;;5051304;28;20281;-82
2023/09/14 01:26:08;;;;;;;0.50;0.50;;;;;;;;;;5051290;28;20200;-82
2023/09/14 01:28:37;;;;;;;0.60;0.60;;;;;;;;;;5064587;28;20250;-82
2023/09/14 01:31:05;;;;;;;0.50;0.50;;;;;;;;;;5071446;28;20221;-82
2023/09/14 01:33:34;;;;;;;0.50;0.50;;;;;;;;;;5058089;28;20203;-82
2023/09/14 01:36:06;;;;;;;0.50;0.50;;;;;;;;;;5066174;28;20204;-82
2023/09/14 01:38:36;;;;;;;0.80;0.80;;;;;;;;;;5070907;28;20200;-82
2023/09/14 01:41:04;;;;;;;0.97;0.97;;;;;;;;;;5071259;28;20222;-82
2023/09/14 01:43:35;;;;;;;0.43;0.43;;;;;;;;;;5070699;28;20212;-82
2023/09/14 01:46:04;;;;;;;0.50;0.50;;;;;;;;;;5073623;28;20258;-82
2023/09/14 01:48:32;;;;;;;0.50;0.50;;;;;;;;;;5063464;28;20208;-83
2023/09/14 01:51:01;;;;;;;0.57;0.57;;;;;;;;;;5054439;28;20299;-82
2023/09/14 01:53:29;;;;;;;0.50;0.50;;;;;;;;;;5055089;28;20216;-82
2023/09/14 01:55:58;;;;;;;0.50;0.50;;;;;;;;;;5054704;28;20202;-82
2023/09/14 01:58:26;;;;;;;0.50;0.50;;;;;;;;;;5065419;28;20211;-81
2023/09/14 02:00:56;;;;;;;0.50;0.50;;;;;;;;;;5073895;28;20207;-83
2023/09/14 02:03:26;;;;;;;0.50;0.50;;;;;;;;;;5064294;28;20201;-82
2023/09/14 02:05:58;;;;;;;0.50;0.50;;;;;;;;;;5055059;28;20211;-81
2023/09/14 02:08:27;;;;;;;0.50;0.50;;;;;;;;;;5064503;28;20303;-81
2023/09/14 02:10:55;;;;;;;0.50;0.50;;;;;;;;;;5074610;28;20257;-81
2023/09/14 02:13:27;;;;;;;0.50;0.50;;;;;;;;;;5074598;28;20270;-81
2023/09/14 02:15:57;;;;;;;0.50;0.50;;;;;;;;;;5074336;28;20370;-82
2023/09/14 02:18:26;;;;;;;0.50;0.50;;;;;;;;;;5064820;28;20199;-82
2023/09/14 02:20:54;;;;;;;0.50;0.50;;;;;;;;;;5053837;28;20262;-82
2023/09/14 02:23:23;;;;;;;0.50;0.50;;;;;;;;;;5062673;28;20205;-82
2023/09/14 02:25:51;;;;;;;0.80;0.80;;;;;;;;;;5074184;28;20210;-82
2023/09/14 02:28:20;;;;;;;0.50;0.50;;;;;;;;;;5072888;28;20281;-82
2023/09/14 02:30:49;;;;;;;0.50;0.50;;;;;;;;;;5073751;28;20246;-81
2023/09/14 02:33:19;;;;;;;0.50;0.50;;;;;;;;;;5067033;28;20295;-81
2023/09/14 02:35:50;;;;;;;0.50;0.50;;;;;;;;;;5054199;28;20202;-81
2023/09/14 02:38:19;;;;;;;0.50;0.50;;;;;;;;;;5061321;28;20270;-81
2023/09/14 02:40:48;;;;;;;0.50;0.50;;;;;;;;;;5074157;28;20204;-81
2023/09/14 02:43:16;;;;;;;0.40;0.40;;;;;;;;;;5074119;28;20300;-81
2023/09/14 02:45:45;;;;;;;0.50;0.50;;;;;;;;;;5074260;28;20226;-81
2023/09/14 02:48:13;;;;;;;0.50;0.50;;;;;;;;;;5073765;28;20194;-81
2023/09/14 02:50:44;;;;;;;0.50;0.50;;;;;;;;;;5074259;28;20273;-81
2023/09/14 02:53:12;;;;;;;0.40;0.40;;;;;;;;;;5068703;28;20196;-80
2023/09/14 02:55:43;;;;;;;0.50;0.50;;;;;;;;;;5053459;28;20201;-81
2023/09/14 02:58:13;;;;;;;0.40;0.40;;;;;;;;;;5059120;28;20210;-80
2023/09/14 03:00:41;;;;;;;0.50;0.50;;;;;;;;;;5073734;28;20314;-82
2023/09/14 03:03:10;;;;;;;0.50;0.50;;;;;;;;;;5073315;28;20247;-82
2023/09/14 03:05:39;;;;;;;0.50;0.50;;;;;;;;;;5072856;28;20195;-82
2023/09/14 03:08:08;;;;;;;0.90;0.90;;;;;;;;;;5069181;28;20209;-82
2023/09/14 03:10:37;;;;;;;0.50;0.50;;;;;;;;;;5053064;28;20207;-82
2023/09/14 03:13:06;;;;;;;0.50;0.50;;;;;;;;;;5053026;28;20248;-82
2023/09/14 03:15:36;;;;;;;0.50;0.50;;;;;;;;;;5052721;28;20199;-81
2023/09/14 03:18:04;;;;;;;0.60;0.60;;;;;;;;;;5056077;28;20289;-82
2023/09/14 03:20:33;;;;;;;0.50;0.50;;;;;;;;;;5062448;28;20203;-80
2023/09/14 03:23:02;;;;;;;0.50;0.50;;;;;;;;;;5052347;28;20228;-82
2023/09/14 03:25:32;;;;;;;0.50;0.50;;;;;;;;;;5052730;28;20230;-82
2023/09/14 03:28:00;;;;;;;0.50;0.50;;;;;;;;;;5052761;28;20197;-82
2023/09/14 03:30:29;;;;;;;0.50;0.50;;;;;;;;;;5052925;28;20232;-82
2023/09/14 03:32:57;;;;;;;0.50;0.50;;;;;;;;;;5053261;28;20200;-82
2023/09/14 03:35:26;;;;;;;0.50;0.50;;;;;;;;;;5072476;28;20217;-82
2023/09/14 03:37:54;;;;;;;0.50;0.50;;;;;;;;;;5072554;28;20231;-82
2023/09/14 03:40:23;;;;;;;0.50;0.50;;;;;;;;;;5052451;28;20204;-82
2023/09/14 03:42:52;;;;;;;1.10;1.10;;;;;;;;;;5052314;28;20268;-82
2023/09/14 03:45:21;;;;;;;0.50;0.50;;;;;;;;;;5052530;28;20208;-82
2023/09/14 03:47:51;;;;;;;0.50;0.50;;;;;;;;;;5052771;28;20201;-82
2023/09/14 03:50:20;;;;;;;0.50;0.50;;;;;;;;;;5051983;28;20242;-82
2023/09/14 03:52:48;;;;;;;0.50;0.50;;;;;;;;;;5052306;28;20246;-82
2023/09/14 03:55:16;;;;;;;0.50;0.50;;;;;;;;;;5063231;28;20205;-82
2023/09/14 03:57:47;;;;;;;0.50;0.50;;;;;;;;;;5052759;28;20200;-82
2023/09/14 04:00:18;;;;;;;1.07;1.07;;;;;;;;;;5051879;28;20250;-82
2023/09/14 04:02:47;;;;;;;0.53;0.53;;;;;;;;;;5052271;28;20255;-82
2023/09/14 04:05:16;;;;;;;0.60;0.60;;;;;;;;;;5052271;28;20293;-82
2023/09/14 04:07:45;;;;;;;0.60;0.60;;;;;;;;;;5052278;28;20289;-81
2023/09/14 04:10:14;;;;;;;0.50;0.50;;;;;;;;;;5052601;28;20260;-81
2023/09/14 04:12:43;;;;;;;0.50;0.50;;;;;;;;;;5052172;28;20204;-82
2023/09/14 04:15:12;;;;;;;0.70;0.70;;;;;;;;;;5052958;28;20235;-81
2023/09/14 04:17:41;;;;;;;0.50;0.50;;;;;;;;;;5052438;28;20236;-80
2023/09/14 04:20:10;;;;;;;0.80;0.80;;;;;;;;;;5052210;28;20203;-81
2023/09/14 04:22:39;;;;;;;0.50;0.50;;;;;;;;;;5052828;28;20217;-81
2023/09/14 04:25:08;;;;;;;0.50;0.50;;;;;;;;;;5052912;28;20213;-81
2023/09/14 04:27:36;;;;;;;0.50;0.50;;;;;;;;;;5051556;28;20237;-82
2023/09/14 04:30:05;;;;;;;0.60;0.60;;;;;;;;;;5051812;28;20322;-82
2023/09/14 04:32:34;;;;;;;0.50;0.50;;;;;;;;;;5052133;28;20229;-81
2023/09/14 04:35:04;;;;;;;0.50;0.50;;;;;;;;;;5052097;28;20208;-81
2023/09/14 04:37:32;;;;;;;0.60;0.60;;;;;;;;;;5051573;28;20226;-82
2023/09/14 04:40:01;;;;;;;0.63;0.63;;;;;;;;;;5052131;28;20279;-82
2023/09/14 04:42:29;;;;;;;0.50;0.50;;;;;;;;;;5051587;28;20248;-82
2023/09/14 04:44:57;;;;;;;0.50;0.50;;;;;;;;;;5051654;28;20278;-81
2023/09/14 04:47:26;;;;;;;0.50;0.50;;;;;;;;;;5051903;28;20297;-82
2023/09/14 04:49:54;;;;;;;0.80;0.80;;;;;;;;;;5051995;28;20212;-82
2023/09/14 04:52:24;;;;;;;0.50;0.50;;;;;;;;;;5051820;28;20271;-82
2023/09/14 04:54:52;;;;;;;0.70;0.70;;;;;;;;;;5051612;28;20208;-82
2023/09/14 04:57:23;;;;;;;0.50;0.50;;;;;;;;;;5051564;28;20202;-82
2023/09/14 04:59:52;;;;;;;0.50;0.50;;;;;;;;;;5051394;28;20200;-82
2023/09/14 05:02:20;;;;;;;0.50;0.50;;;;;;;;;;5051305;28;20209;-82
2023/09/14 05:04:49;;;;;;;0.57;0.57;;;;;;;;;;5057899;28;20257;-82
2023/09/14 05:07:17;;;;;;;0.50;0.50;;;;;;;;;;5051690;28;20204;-81
2023/09/14 05:09:47;;;;;;;0.50;0.50;;;;;;;;;;5052188;28;20205;-81
2023/09/14 05:12:16;;;;;;;0.50;0.50;;;;;;;;;;5051670;28;20215;-82
2023/09/14 05:14:44;;;;;;;0.50;0.50;;;;;;;;;;5051310;28;20200;-82
2023/09/14 05:17:13;;;;;;;0.50;0.50;;;;;;;;;;5051732;28;20200;-82
2023/09/14 05:19:42;;;;;;;0.53;0.53;;;;;;;;;;5053789;28;20204;-82
2023/09/14 05:22:10;;;;;;;0.50;0.50;;;;;;;;;;5054941;28;20207;-82
2023/09/14 05:24:40;;;;;;;0.70;0.70;;;;;;;;;;5055054;28;20219;-81
2023/09/14 05:27:12;;;;;;;0.50;0.50;;;;;;;;;;5056488;28;20294;-83
2023/09/14 05:29:43;;;;;;;2.00;1.90;;;;;;;;;;5055646;28;20269;-83
2023/09/14 05:32:12;;;;;;;0.50;0.50;;;;;;;;;;5054919;28;20223;-82
2023/09/14 05:34:40;;;;;;;0.50;0.50;;;;;;;;;;5054841;28;20198;-82
2023/09/14 05:37:09;;;;;;;0.50;0.50;;;;;;;;;;5055456;28;20235;-83
2023/09/14 05:39:37;;;;;;;0.50;0.50;;;;;;;;;;5055441;28;20218;-82
2023/09/14 05:42:06;;;;;;;3.30;2.03;;;;;;;;;;5055541;28;20217;-81
2023/09/14 05:44:36;;;;;;;3.60;2.23;;;;;;;;;;5055728;28;20204;-82
2023/09/14 05:47:04;;;;;;;3.00;2.77;;;;;;;;;;5056320;28;20214;-82
2023/09/14 05:49:33;;;;;;;1.90;1.80;;;;;;;;;;5062738;28;20219;-81
2023/09/14 05:52:01;;;;;;;2.87;1.10;;;;;;;;;;5076227;28;20203;-82
2023/09/14 05:54:30;;;;;;;0.50;0.50;;;;;;;;;;5075728;28;20261;-82
2023/09/14 05:56:58;;;;;;;0.90;0.90;;;;;;;;;;5075818;28;20262;-82
2023/09/14 05:59:27;;;;;;;0.90;0.90;;;;;;;;;;5070219;28;20268;-82
2023/09/14 06:02:01;;;;;;;0.77;0.77;;;;;;;;;;5055836;28;20202;-82
2023/09/14 06:04:30;;;;;;;1.00;1.00;;;;;;;;;;5060771;28;20210;-81
2023/09/14 06:06:59;;;;;;;0.60;0.60;;;;;;;;;;5075566;28;20209;-82
2023/09/14 06:09:29;;;;;;;0.50;0.50;;;;;;;;;;5074542;28;20202;-82
2023/09/14 06:11:58;;;;;;;1.07;1.07;;;;;;;;;;5075224;28;20196;-82
2023/09/14 06:14:26;;;;;;;1.00;1.00;;;;;;;;;;5070869;28;20225;-82
2023/09/14 06:16:55;;;;;;;0.60;0.60;;;;;;;;;;5055253;28;20249;-83
2023/09/14 06:19:25;;;;;;;0.70;0.70;;;;;;;;;;5058607;28;20208;-82
2023/09/14 06:21:54;;;;;;;0.50;0.50;;;;;;;;;;5074959;28;20305;-82
2023/09/14 06:24:22;;;;;;;0.60;0.60;;;;;;;;;;5074937;28;20321;-82
2023/09/14 06:26:51;;;;;;;0.50;0.50;;;;;;;;;;5075306;28;20214;-82
2023/09/14 06:29:19;;;;;;;2.97;1.57;;;;;;;;;;5074493;28;20238;-82
2023/09/14 06:31:48;;;;;;;0.80;0.80;;;;;;;;;;5074501;28;20241;-82
2023/09/14 06:34:16;;;;;;;0.93;0.90;;;;;;;;;;5073332;28;20194;-82
2023/09/14 06:36:46;;;;;;;0.80;0.80;;;;;;;;;;5055090;28;20269;-82
2023/09/14 06:39:15;;;;;;;4.63;3.23;;;;;;;;;;5056623;28;20204;-82
2023/09/14 06:41:44;;;;;;;2.50;1.17;;;;;;;;;;5075333;28;20463;-82
2023/09/14 06:44:13;;;;;;;0.97;0.97;;;;;;;;;;5074480;28;20226;-83
2023/09/14 06:46:41;;;;;;;0.50;0.50;;;;;;;;;;5075237;28;20203;-82
2023/09/14 06:49:10;;;;;;;1.00;1.00;;;;;;;;;;5074470;28;20206;-82
2023/09/14 06:51:39;;;;;;;0.50;0.50;;;;;;;;;;5054878;28;20227;-82
2023/09/14 06:54:09;;;;;;;0.50;0.50;;;;;;;;;;5054702;28;20203;-81
2023/09/14 06:56:37;;;;;;;0.50;0.50;;;;;;;;;;5054843;28;20219;-82
2023/09/14 06:59:06;;;;;;;5.00;3.40;;;;;;;;;;5054990;28;20205;-82
2023/09/14 07:01:37;;;;;;;7.07;3.80;;;;;;;;;;5063527;28;20196;-82
2023/09/14 07:04:06;;;;;;;3.87;2.43;;;;;;;;;;5069984;28;20216;-82
2023/09/14 07:06:39;;;;;;;7.00;3.53;;;;;;;;;;5065700;28;20201;-82
2023/09/14 07:09:09;;;;;;;11.60;4.37;;;;;;;;;;5054158;28;20209;-82
2023/09/14 07:11:41;;;;;;;6.47;3.20;;;;;;;;;;5054511;28;20228;-82
2023/09/14 07:14:09;;;;;;;8.97;4.60;;;;;;;;;;5053859;28;20207;-83
2023/09/14 07:16:38;;;;;;;10.20;4.97;;;;;;;;;;5054051;28;20215;-82
2023/09/14 07:19:07;;;;;;;9.83;4.97;;;;;;;;;;5053636;28;20205;-82
2023/09/14 07:21:37;;;;;;;6.23;4.30;;;;;;;;;;5053029;28;20295;-82
2023/09/14 07:24:08;;;;;;;6.30;2.93;;;;;;;;;;5053655;28;20220;-82
2023/09/14 07:26:39;;;;;;;2.80;2.57;;;;;;;;;;5053850;28;20205;-82
2023/09/14 07:29:08;;;;;;;9.77;4.73;;;;;;;;;;5053353;28;20208;-82
2023/09/14 07:31:36;;;;;;;10.47;4.00;;;;;;;;;;5052478;28;20207;-82
2023/09/14 07:34:05;;;;;;;5.27;3.43;;;;;;;;;;5052946;28;20189;-82
2023/09/14 07:36:34;;;;;;;5.03;3.90;;;;;;;;;;5052471;28;20334;-82
2023/09/14 07:39:03;;;;;;;9.77;4.30;;;;;;;;;;5053925;28;20209;-82
2023/09/14 07:41:31;;;;;;;8.30;4.10;;;;;;;;;;5052846;28;20204;-82
2023/09/14 07:44:02;;;;;;;6.13;4.20;;;;;;;;;;5053056;28;20198;-82
2023/09/14 07:46:30;;;;;;;8.27;4.43;;;;;;;;;;5053599;28;20196;-82
2023/09/14 07:48:59;;;;;;;9.77;5.33;;;;;;;;;;5053636;28;20271;-82
2023/09/14 07:51:28;;;;;;;12.63;5.30;;;;;;;;;;5053455;28;20225;-82
2023/09/14 07:53:56;;;;;;;7.73;2.10;;;;;;;;;;5053293;28;20210;-82
2023/09/14 07:56:25;;;;;;;6.10;3.00;;;;;;;;;;5053868;28;20201;-82
2023/09/14 07:58:55;;;;;;;0.77;0.77;;;;;;;;;;5053232;28;20199;-82
2023/09/14 08:01:25;;;;;;;11.47;5.43;;;;;;;;;;5053263;28;20199;-82
2023/09/14 08:03:53;;;;;;;7.80;5.00;;;;;;;;;;5053380;28;20209;-82
2023/09/14 08:06:24;;;;;;;7.17;4.30;;;;;;;;;;5052704;28;20205;-77
2023/09/14 08:08:56;;;;;;;13.77;5.70;;;;;;;;;;5052167;28;20205;-82
2023/09/14 08:11:26;;;;;;;8.17;4.23;;;;;;;;;;5052051;28;20204;-82
2023/09/14 08:13:55;;;;;;;5.77;4.30;;;;;;;;;;5052853;28;20206;-82
2023/09/14 08:16:30;;;;;;;5.33;3.33;;;;;;;;;;5053456;28;20216;-82
2023/09/14 08:18:59;;;;;;;3.97;2.20;;;;;;;;;;5053315;28;20205;-82
2023/09/14 08:21:28;;;;;;;5.53;3.30;;;;;;;;;;5052332;28;20399;-83
2023/09/14 08:23:56;;;;;;;7.03;4.03;;;;;;;;;;5052641;28;20295;-83
2023/09/14 08:26:25;;;;;;;10.50;4.80;;;;;;;;;;5052284;28;20224;-83
2023/09/14 08:28:53;;;;;;;10.00;4.03;;;;;;;;;;5052438;28;20210;-82
2023/09/14 08:31:22;;;;;;;5.77;3.97;;;;;;;;;;5052569;28;20239;-83
2023/09/14 08:33:52;;;;;;;9.23;5.17;;;;;;;;;;5053268;28;20203;-82
2023/09/14 08:36:21;;;;;;;5.57;3.23;;;;;;;;;;5052948;28;20286;-82
2023/09/14 08:38:51;;;;;;;4.87;3.57;;;;;;;;;;5053659;28;20209;-82
2023/09/14 08:41:43;;;;;;;6.03;3.47;;;;;;;;;;5052843;28;20468;-83
2023/09/14 08:44:12;;;;;;;3.93;3.20;;;;;;;;;;5053046;28;20212;-82
2023/09/14 08:46:41;;;;;;;3.50;2.97;;;;;;;;;;5053029;28;20244;-82
2023/09/14 08:49:11;;;;;;;8.83;5.73;;;;;;;;;;5053259;28;20323;-84
2023/09/14 08:51:41;;;;;;;10.17;4.40;;;;;;;;;;5052625;28;20206;-82
2023/09/14 08:54:11;;;;;;;4.37;2.47;;;;;;;;;;5058780;28;20395;-83
2023/09/14 08:56:46;;;;;;;0.37;0.37;;;;;;;;;;5062993;28;20211;-83
2023/09/14 08:59:16;;;;;;;4.90;2.17;;;;;;;;;;5065196;28;20208;-83
2023/09/14 09:01:49;;;;;;;8.87;4.20;;;;;;;;;;5071005;28;20213;-82
2023/09/14 09:04:19;;;;;;;2.03;1.63;;;;;;;;;;5075176;28;20221;-82
2023/09/14 09:06:49;;;;;;;6.83;3.83;;;;;;;;;;5064611;28;20232;-82
2023/09/14 09:09:21;;;;;;;1.33;1.30;;;;;;;;;;5069248;28;20210;-82
2023/09/14 09:11:50;;;;;;;2.43;2.30;;;;;;;;;;5063983;28;20206;-82
2023/09/14 09:14:19;;;;;;;8.97;4.63;;;;;;;;;;5069726;28;20263;-82
2023/09/14 09:16:47;;;;;;;1.67;1.57;;;;;;;;;;5069941;28;20205;-82
2023/09/14 09:19:16;;;;;;;6.10;4.07;;;;;;;;;;5064252;28;20240;-82
2023/09/14 09:21:47;;;;;;;1.37;1.20;;;;;;;;;;5059477;28;20217;-82
2023/09/14 09:24:26;;;;;;;0.30;0.30;;;;;;;;;;5068801;28;20204;-82
2023/09/14 09:26:56;;;;;;;7.97;4.57;;;;;;;;;;5066391;28;20318;-84
2023/09/14 09:29:26;;;;;;;2.33;1.70;;;;;;;;;;5060094;28;20297;-83
2023/09/14 09:31:55;;;;;;;8.77;3.40;;;;;;;;;;5071997;28;20206;-83
2023/09/14 09:34:25;;;;;;;1.33;1.23;;;;;;;;;;5066676;28;20206;-83
2023/09/14 09:36:59;;;;;;;9.07;4.03;;;;;;;;;;5066589;28;20234;-83
2023/09/14 09:39:28;;;;;;;2.67;1.47;;;;;;;;;;5062845;28;20209;-83
2023/09/14 09:41:57;;;;;;;0.87;0.87;;;;;;;;;;5068051;28;20208;-82
2023/09/14 09:44:28;;;;;;;7.20;3.30;;;;;;;;;;5072597;28;20214;-83
2023/09/14 09:46:58;;;;;;;4.03;2.20;;;;;;;;;;5067884;28;20219;-83
2023/09/14 09:49:29;;;;;;;10.77;3.73;;;;;;;;;;5062755;28;20206;-83
2023/09/14 09:51:59;;;;;;;5.40;2.77;;;;;;;;;;5072477;28;20198;-83
2023/09/14 09:54:28;;;;;;;7.57;3.33;;;;;;;;;;5061707;28;20297;-82
2023/09/14 09:56:57;;;;;;;0.30;0.30;;;;;;;;;;5061503;28;20263;-84
2023/09/14 09:59:29;;;;;;;3.10;1.90;;;;;;;;;;5065790;28;20259;-84
2023/09/14 10:01:58;;;;;;;8.57;3.77;;;;;;;;;;5062524;28;20226;-84
2023/09/14 10:04:29;;;;;;;3.33;1.93;;;;;;;;;;5077394;28;20296;-83
2023/09/14 10:06:59;;;;;;;0.40;0.40;;;;;;;;;;5075915;28;20240;-84
2023/09/14 10:09:34;;;;;;;5.87;2.93;;;;;;;;;;5063680;28;20213;-84
2023/09/14 10:12:04;;;;;;;2.43;2.10;;;;;;;;;;5066173;28;20214;-84
2023/09/14 10:14:34;;;;;;;4.73;3.27;;;;;;;;;;5062727;28;20213;-83
2023/09/14 10:17:04;;;;;;;3.10;1.70;;;;;;;;;;5064457;28;20201;-83
2023/09/14 10:19:34;;;;;;;0.80;0.80;;;;;;;;;;5065659;28;20201;-82
2023/09/14 10:22:04;;;;;;;1.07;1.07;;;;;;;;;;5064365;28;20212;-83
2023/09/14 10:24:32;;;;;;;1.00;0.63;;;;;;;;;;5068076;28;20211;-84
2023/09/14 10:27:01;;;;;;;6.20;3.23;;;;;;;;;;5066192;28;20277;-83
2023/09/14 10:29:30;;;;;;;0.70;0.70;;;;;;;;;;5066255;28;20295;-82
2023/09/14 10:32:00;;;;;;;1.03;0.70;;;;;;;;;;5068684;28;20197;-86
2023/09/14 10:34:30;;;;;;;1.33;1.23;;;;;;;;;;5066714;28;20207;-85
2023/09/14 10:37:00;;;;;;;0.40;0.40;;;;;;;;;;5063231;28;20240;-85
2023/09/14 10:39:30;;;;;;;3.43;1.47;;;;;;;;;;5067874;28;20198;-85
2023/09/14 10:41:59;;;;;;;7.83;1.80;;;;;;;;;;5068407;28;20208;-79
2023/09/14 10:44:28;;;;;;;5.93;2.77;;;;;;;;;;5068303;28;20246;-79
2023/09/14 10:46:59;;;;;;;0.33;0.33;;;;;;;;;;5074752;28;20216;-78
2023/09/14 10:49:32;;;;;;;0.60;0.60;;;;;;;;;;5063282;28;20193;-81
2023/09/14 10:52:01;;;;;;;0.23;0.23;;;;;;;;;;5076584;28;20288;-85
2023/09/14 10:54:33;;;;;;;2.47;1.63;;;;;;;;;;5067971;28;20249;-85
2023/09/14 10:57:02;;;;;;;0.40;0.40;;;;;;;;;;5066303;28;20272;-82
2023/09/14 10:59:50;;;;;;;4.80;2.43;;;;;;;;;;5066888;28;20211;-82
2023/09/14 11:02:37;;;;;;;2.70;1.10;;;;;;;;;;5063503;28;20207;-83
2023/09/14 11:05:18;;;;;;;0.20;0.20;;;;;;;;;;5067993;28;20216;-83
2023/09/14 11:07:48;;;;;;;0.67;0.43;;;;;;;;;;5066104;28;20228;-82
2023/09/14 11:10:20;;;;;;;1.33;1.20;;;;;;;;;;5065234;28;20255;-84
2023/09/14 11:12:49;;;;;;;3.37;2.13;;;;;;;;;;5061797;28;20235;-82
2023/09/14 11:15:21;;;;;;;5.87;1.73;;;;;;;;;;5065502;28;20295;-82
2023/09/14 11:17:56;;;;;;;4.07;3.00;;;;;;;;;;5072213;28;20204;-83
2023/09/14 11:20:39;;;;;;;5.50;3.73;;;;;;;;;;5069047;28;20217;-79
2023/09/14 11:23:09;;;;;;;0.30;0.30;;;;;;;;;;5056652;28;20209;-82
2023/09/14 11:25:41;;;;;;;0.30;0.30;;;;;;;;;;5064116;28;20207;-83
2023/09/14 11:28:33;;;;;;;0.87;0.73;;;;;;;;;;5069745;28;20208;-83
2023/09/14 11:31:05;;;;;;;0.50;0.50;;;;;;;;;;5063777;28;20233;-86
2023/09/14 11:33:35;;;;;;;0.57;0.57;;;;;;;;;;5064687;28;20258;-85
2023/09/14 11:36:04;;;;;;;4.70;1.73;;;;;;;;;;5064255;28;20264;-83
2023/09/14 11:38:37;;;;;;;6.63;4.17;;;;;;;;;;5064767;28;20204;-81
2023/09/14 11:41:07;;;;;;;6.43;3.27;;;;;;;;;;5066725;28;20264;-83
2023/09/14 11:44:04;;;;;;;0.40;0.40;;;;;;;;;;5067106;28;20196;-83
2023/09/14 11:46:53;;;;;;;4.17;2.13;;;;;;;;;;5064879;28;20231;-83
2023/09/14 11:49:30;;;;;;;1.70;0.87;;;;;;;;;;5064650;28;20199;-83
2023/09/14 11:52:00;;;;;;;5.57;2.93;;;;;;;;;;5065745;28;20205;-82
2023/09/14 11:54:31;;;;;;;7.60;3.93;;;;;;;;;;5063389;28;20201;-83
2023/09/14 11:57:02;;;;;;;1.10;1.10;;;;;;;;;;5061658;28;20268;-82
2023/09/14 11:59:31;;;;;;;0.50;0.50;;;;;;;;;;5063762;28;20244;-82
2023/09/14 12:02:00;;;;;;;7.33;3.90;;;;;;;;;;5063757;28;20204;-82
2023/09/14 12:04:31;;;;;;;3.80;3.13;;;;;;;;;;5068158;28;20204;-83
2023/09/14 12:07:00;;;;;;;2.27;1.43;;;;;;;;;;5064263;28;20235;-83
2023/09/14 12:09:35;;;;;;;1.27;1.17;;;;;;;;;;5061178;28;20205;-83
2023/09/14 12:12:10;;;;;;;4.83;2.63;;;;;;;;;;5062204;28;20205;-83
2023/09/14 12:14:40;;;;;;;3.20;2.17;;;;;;;;;;5064691;28;20393;-82
2023/09/14 12:17:21;;;;;;;3.23;2.10;;;;;;;;;;5061625;28;20231;-82
2023/09/14 12:19:50;;;;;;;3.30;2.83;;;;;;;;;;5070482;28;20201;-82
2023/09/14 12:22:22;;;;;;;3.50;1.63;;;;;;;;;;5063615;28;20215;-82
2023/09/14 12:24:51;;;;;;;1.23;1.03;;;;;;;;;;5062580;28;20271;-83
2023/09/14 12:27:22;;;;;;;0.60;0.60;;;;;;;;;;5061252;28;20215;-83
2023/09/14 12:29:51;;;;;;;1.10;1.00;;;;;;;;;;5069602;28;20286;-83
2023/09/14 12:32:20;;;;;;;4.40;2.97;;;;;;;;;;5066655;28;20242;-83
2023/09/14 12:34:49;;;;;;;2.43;1.47;;;;;;;;;;5058515;28;20221;-83
2023/09/14 12:37:18;;;;;;;1.97;1.47;;;;;;;;;;5062026;28;20309;-82
2023/09/14 12:39:51;;;;;;;2.00;1.63;;;;;;;;;;5062359;28;20209;-82
2023/09/14 12:42:23;;;;;;;0.30;0.30;;;;;;;;;;5061525;28;20212;-82
2023/09/14 12:44:54;;;;;;;0.70;0.70;;;;;;;;;;5062382;28;20201;-82
2023/09/14 12:47:22;;;;;;;0.20;0.20;;;;;;;;;;5062097;28;20220;-83
2023/09/14 12:49:51;;;;;;;6.23;1.40;;;;;;;;;;5059489;28;20216;-82
2023/09/14 12:52:21;;;;;;;1.37;1.27;;;;;;;;;;5064330;28;20215;-83
2023/09/14 12:54:50;;;;;;;4.73;1.47;;;;;;;;;;5063371;28;20211;-82
2023/09/14 12:57:19;;;;;;;4.10;1.47;;;;;;;;;;5062676;28;20286;-83
2023/09/14 13:00:07;;;;;;;0.80;0.80;;;;;;;;;;5060946;28;20239;-82
2023/09/14 13:02:36;;;;;;;1.30;1.17;;;;;;;;;;5062502;28;20215;-82
2023/09/14 13:05:06;;;;;;;0.47;0.47;;;;;;;;;;5066278;28;20292;-81
2023/09/14 13:07:35;;;;;;;0.40;0.40;;;;;;;;;;5063882;28;20253;-82
2023/09/14 13:10:11;;;;;;;0.70;0.70;;;;;;;;;;5062691;28;20208;-83
2023/09/14 13:12:45;;;;;;;3.60;0.87;;;;;;;;;;5063718;28;20233;-81
2023/09/14 13:15:19;;;;;;;0.20;0.20;;;;;;;;;;5063059;28;20212;-81
2023/09/14 13:17:48;;;;;;;0.20;0.20;;;;;;;;;;5059882;28;20202;-81
2023/09/14 13:20:17;;;;;;;1.93;1.53;;;;;;;;;;5062480;28;20202;-80
2023/09/14 13:22:45;;;;;;;1.80;0.47;;;;;;;;;;5062390;28;20208;-79
2023/09/14 13:25:17;;;;;;;6.77;3.23;;;;;;;;;;5065507;28;20232;-79
2023/09/14 13:27:45;;;;;;;5.80;1.90;;;;;;;;;;5062612;28;20345;-79
2023/09/14 13:30:15;;;;;;;2.63;1.83;;;;;;;;;;5055893;28;20235;-80
2023/09/14 13:32:45;;;;;;;6.10;3.10;;;;;;;;;;5064755;28;20205;-81
2023/09/14 13:35:14;;;;;;;3.30;2.33;;;;;;;;;;5064565;28;20194;-81
2023/09/14 13:37:45;;;;;;;3.43;2.17;;;;;;;;;;5063326;28;20282;-82
2023/09/14 13:40:18;;;;;;;5.83;1.77;;;;;;;;;;5062448;28;20302;-80
2023/09/14 13:42:48;;;;;;;9.73;1.70;;;;;;;;;;5066258;28;20236;-81
2023/09/14 13:45:18;;;;;;;0.57;0.57;;;;;;;;;;5068577;28;20200;-81
2023/09/14 13:47:50;;;;;;;0.20;0.20;;;;;;;;;;5065502;28;20313;-82
2023/09/14 13:50:18;;;;;;;3.17;1.77;;;;;;;;;;5066467;28;20245;-81
2023/09/14 13:52:47;;;;;;;2.30;1.73;;;;;;;;;;5064130;28;20223;-81
2023/09/14 13:55:16;;;;;;;2.90;1.90;;;;;;;;;;5063992;28;20296;-80
2023/09/14 13:57:45;;;;;;;4.53;2.40;;;;;;;;;;5063512;28;20212;-82
2023/09/14 14:00:15;;;;;;;0.63;0.63;;;;;;;;;;5064489;28;20213;-83
2023/09/14 14:02:46;;;;;;;1.20;0.83;;;;;;;;;;5067816;28;20283;-83
2023/09/14 14:05:15;;;;;;;3.33;1.77;;;;;;;;;;5066424;28;20300;-82
2023/09/14 14:07:46;;;;;;;0.77;0.77;;;;;;;;;;5066712;28;20214;-83
2023/09/14 14:10:15;;;;;;;5.90;1.93;;;;;;;;;;5065454;28;20262;-83
2023/09/14 14:12:44;;;;;;;2.53;1.93;;;;;;;;;;5058255;28;20228;-83
2023/09/14 14:15:12;;;;;;;3.93;1.73;;;;;;;;;;5066941;28;20231;-85
2023/09/14 14:17:41;;;;;;;3.20;1.63;;;;;;;;;;5063716;28;20206;-84
2023/09/14 14:20:11;;;;;;;6.90;2.30;;;;;;;;;;5062190;28;20205;-83
2023/09/14 14:22:40;;;;;;;1.73;1.50;;;;;;;;;;5065982;28;20227;-83
2023/09/14 14:25:09;;;;;;;2.53;1.33;;;;;;;;;;5066251;28;20229;-83
2023/09/14 14:27:40;;;;;;;0.20;0.20;;;;;;;;;;5059982;28;20217;-83
2023/09/14 14:30:10;;;;;;;5.93;2.63;;;;;;;;;;5062763;28;20210;-83
2023/09/14 14:32:39;;;;;;;0.77;0.63;;;;;;;;;;5064478;28;20213;-83
2023/09/14 14:35:09;;;;;;;2.30;0.97;;;;;;;;;;5066720;28;20212;-83
2023/09/14 14:37:39;;;;;;;1.47;1.37;;;;;;;;;;5065430;28;20243;-83
2023/09/14 14:40:12;;;;;;;3.10;2.70;;;;;;;;;;5063137;28;20214;-83
2023/09/14 14:43:00;;;;;;;1.33;1.17;;;;;;;;;;5064878;28;20296;-84
2023/09/14 14:45:29;;;;;;;1.27;0.60;;;;;;;;;;5063081;28;20211;-83
2023/09/14 14:47:57;;;;;;;3.60;1.60;;;;;;;;;;5067333;28;20251;-83
2023/09/14 14:50:26;;;;;;;6.23;1.43;;;;;;;;;;5064738;28;20207;-83
2023/09/14 14:52:56;;;;;;;1.80;1.00;;;;;;;;;;5064595;28;20201;-83
2023/09/14 14:55:24;;;;;;;1.20;1.13;;;;;;;;;;5061877;28;20213;-83
2023/09/14 14:57:54;;;;;;;0.77;0.77;;;;;;;;;;5063241;28;20213;-81
2023/09/14 15:00:23;;;;;;;4.10;1.60;;;;;;;;;;5065754;28;20211;-82